sensor_id;sensor_type;location;lat;lon;timestamp;temperature;humidity
14119;DHT22;7138;49.246;9.100;2022-10-15T00:01:09;13.50;99.90
14119;DHT22;7138;49.246;9.100;2022-10-15T00:03:38;13.50;99.90
14119;DHT22;7138;49.246;9.100;2022-10-15T00:06:06;13.50;99.90
14119;DHT22;7138;49.246;9.100;2022-10-15T00:08:34;13.50;99.90
14119;DHT22;7138;49.246;9.100;2022-10-15T00:11:05;13.50;99.90
14119;DHT22;7138;49.246;9.100;2022-10-15T00:13:32;13.50;99.90
14119;DHT22;7138;49.246;9.100;2022-10-15T00:15:59;13.50;99.90
14119;DHT22;7138;49.246;9.100;2022-10-15T00:18:26;13.50;99.90
14119;DHT22;7138;49.246;9.100;2022-10-15T00:20:52;13.50;99.90
14119;DHT22;7138;49.246;9.100;2022-10-15T00:23:18;13.50;99.90
14119;DHT22;7138;49.246;9.100;2022-10-15T00:25:44;13.50;99.90
14119;DHT22;7138;49.246;9.100;2022-10-15T00:28:09;13.50;99.90
14119;DHT22;7138;49.246;9.100;2022-10-15T00:30:35;13.50;99.90
14119;DHT22;7138;49.246;9.100;2022-10-15T00:33:01;13.50;99.90
14119;DHT22;7138;49.246;9.100;2022-10-15T00:35:28;13.50;99.90
14119;DHT22;7138;49.246;9.100;2022-10-15T00:37:54;13.50;99.90
14119;DHT22;7138;49.246;9.100;2022-10-15T00:40:20;13.60;99.90
14119;DHT22;7138;49.246;9.100;2022-10-15T00:42:47;13.60;99.90
14119;DHT22;7138;49.246;9.100;2022-10-15T00:45:14;13.60;99.90
14119;DHT22;7138;49.246;9.100;2022-10-15T00:47:42;13.50;99.90
14119;DHT22;7138;49.246;9.100;2022-10-15T00:50:12;13.60;99.90
14119;DHT22;7138;49.246;9.100;2022-10-15T00:52:45;13.50;99.90
14119;DHT22;7138;49.246;9.100;2022-10-15T00:55:25;13.60;99.90
14119;DHT22;7138;49.246;9.100;2022-10-15T00:57:55;13.50;99.90
14119;DHT22;7138;49.246;9.100;2022-10-15T01:00:25;13.60;99.90
14119;DHT22;7138;49.246;9.100;2022-10-15T01:02:51;13.60;99.90
14119;DHT22;7138;49.246;9.100;2022-10-15T01:05:17;13.60;99.90
14119;DHT22;7138;49.246;9.100;2022-10-15T01:07:44;13.60;99.90
14119;DHT22;7138;49.246;9.100;2022-10-15T01:10:10;13.60;99.90
14119;DHT22;7138;49.246;9.100;2022-10-15T01:12:47;13.60;99.90
14119;DHT22;7138;49.246;9.100;2022-10-15T01:15:24;13.60;99.90
14119;DHT22;7138;49.246;9.100;2022-10-15T01:17:56;13.60;99.90
14119;DHT22;7138;49.246;9.100;2022-10-15T01:20:49;13.60;99.90
14119;DHT22;7138;49.246;9.100;2022-10-15T01:26:56;13.60;99.90
14119;DHT22;7138;49.246;9.100;2022-10-15T01:33:02;13.60;99.90
14119;DHT22;7138;49.246;9.100;2022-10-15T01:35:43;13.60;99.90
14119;DHT22;7138;49.246;9.100;2022-10-15T01:38:32;13.70;99.90
14119;DHT22;7138;49.246;9.100;2022-10-15T01:41:09;13.70;99.90
14119;DHT22;7138;49.246;9.100;2022-10-15T01:43:44;13.60;99.90
14119;DHT22;7138;49.246;9.100;2022-10-15T01:46:21;13.60;99.90
14119;DHT22;7138;49.246;9.100;2022-10-15T01:48:53;13.70;99.90
14119;DHT22;7138;49.246;9.100;2022-10-15T01:51:23;13.70;99.90
14119;DHT22;7138;49.246;9.100;2022-10-15T01:53:51;13.70;99.90
14119;DHT22;7138;49.246;9.100;2022-10-15T01:56:21;13.70;99.90
14119;DHT22;7138;49.246;9.100;2022-10-15T01:58:49;13.70;99.90
14119;DHT22;7138;49.246;9.100;2022-10-15T02:01:21;13.70;99.90
14119;DHT22;7138;49.246;9.100;2022-10-15T02:03:48;13.70;99.90
14119;DHT22;7138;49.246;9.100;2022-10-15T02:06:20;13.70;99.90
14119;DHT22;7138;49.246;9.100;2022-10-15T02:08:58;13.70;99.90
14119;DHT22;7138;49.246;9.100;2022-10-15T02:11:41;13.70;99.90
14119;DHT22;7138;49.246;9.100;2022-10-15T02:14:24;13.80;99.90
14119;DHT22;7138;49.246;9.100;2022-10-15T02:17:00;13.70;99.90
14119;DHT22;7138;49.246;9.100;2022-10-15T02:19:38;13.80;99.90
14119;DHT22;7138;49.246;9.100;2022-10-15T02:22:12;13.70;99.90
14119;DHT22;7138;49.246;9.100;2022-10-15T02:24:43;13.70;99.90
14119;DHT22;7138;49.246;9.100;2022-10-15T02:27:15;13.70;99.90
14119;DHT22;7138;49.246;9.100;2022-10-15T02:29:44;13.80;99.90
14119;DHT22;7138;49.246;9.100;2022-10-15T02:32:15;13.80;99.90
14119;DHT22;7138;49.246;9.100;2022-10-15T02:34:45;13.80;99.90
14119;DHT22;7138;49.246;9.100;2022-10-15T02:37:12;13.80;99.90
14119;DHT22;7138;49.246;9.100;2022-10-15T02:39:39;13.80;99.90
14119;DHT22;7138;49.246;9.100;2022-10-15T02:42:08;13.80;99.90
14119;DHT22;7138;49.246;9.100;2022-10-15T02:44:34;13.90;99.90
14119;DHT22;7138;49.246;9.100;2022-10-15T02:47:00;13.80;99.90
14119;DHT22;7138;49.246;9.100;2022-10-15T02:49:28;13.90;99.90
14119;DHT22;7138;49.246;9.100;2022-10-15T02:51:54;13.90;99.90
14119;DHT22;7138;49.246;9.100;2022-10-15T02:54:20;14.00;99.90
14119;DHT22;7138;49.246;9.100;2022-10-15T02:56:47;14.20;99.90
14119;DHT22;7138;49.246;9.100;2022-10-15T02:59:13;14.30;99.90
14119;DHT22;7138;49.246;9.100;2022-10-15T03:01:38;14.50;99.90
14119;DHT22;7138;49.246;9.100;2022-10-15T03:04:04;14.70;99.90
14119;DHT22;7138;49.246;9.100;2022-10-15T03:06:32;14.80;99.90
14119;DHT22;7138;49.246;9.100;2022-10-15T03:08:58;14.90;99.90
14119;DHT22;7138;49.246;9.100;2022-10-15T03:11:24;14.90;99.90
14119;DHT22;7138;49.246;9.100;2022-10-15T03:13:50;15.00;99.90
14119;DHT22;7138;49.246;9.100;2022-10-15T03:16:15;15.00;99.90
14119;DHT22;7138;49.246;9.100;2022-10-15T03:18:41;15.10;99.90
14119;DHT22;7138;49.246;9.100;2022-10-15T03:21:07;15.10;99.90
14119;DHT22;7138;49.246;9.100;2022-10-15T03:23:35;15.10;99.90
14119;DHT22;7138;49.246;9.100;2022-10-15T03:26:01;15.10;99.90
14119;DHT22;7138;49.246;9.100;2022-10-15T03:28:27;15.20;99.90
14119;DHT22;7138;49.246;9.100;2022-10-15T03:30:53;15.10;99.90
14119;DHT22;7138;49.246;9.100;2022-10-15T03:33:18;15.20;99.90
14119;DHT22;7138;49.246;9.100;2022-10-15T03:35:44;15.20;99.90
14119;DHT22;7138;49.246;9.100;2022-10-15T03:38:10;15.20;99.90
14119;DHT22;7138;49.246;9.100;2022-10-15T03:40:37;15.20;99.90
14119;DHT22;7138;49.246;9.100;2022-10-15T03:43:03;15.20;99.90
14119;DHT22;7138;49.246;9.100;2022-10-15T03:45:29;15.20;99.90
14119;DHT22;7138;49.246;9.100;2022-10-15T03:47:55;15.20;99.90
14119;DHT22;7138;49.246;9.100;2022-10-15T03:50:21;15.20;99.90
14119;DHT22;7138;49.246;9.100;2022-10-15T03:52:46;15.20;99.90
14119;DHT22;7138;49.246;9.100;2022-10-15T03:55:12;15.20;99.90
14119;DHT22;7138;49.246;9.100;2022-10-15T03:57:39;15.20;99.90
14119;DHT22;7138;49.246;9.100;2022-10-15T04:00:07;15.20;99.90
14119;DHT22;7138;49.246;9.100;2022-10-15T04:02:34;15.20;99.90
14119;DHT22;7138;49.246;9.100;2022-10-15T04:05:00;15.30;99.90
14119;DHT22;7138;49.246;9.100;2022-10-15T04:07:26;15.30;99.90
14119;DHT22;7138;49.246;9.100;2022-10-15T04:09:52;15.30;99.90
14119;DHT22;7138;49.246;9.100;2022-10-15T04:12:18;15.30;99.90
14119;DHT22;7138;49.246;9.100;2022-10-15T04:14:45;15.20;99.90
14119;DHT22;7138;49.246;9.100;2022-10-15T04:17:11;15.30;99.90
14119;DHT22;7138;49.246;9.100;2022-10-15T04:19:36;15.30;99.90
14119;DHT22;7138;49.246;9.100;2022-10-15T04:22:03;15.30;99.90
14119;DHT22;7138;49.246;9.100;2022-10-15T04:24:29;15.30;99.90
14119;DHT22;7138;49.246;9.100;2022-10-15T04:26:55;15.30;99.90
14119;DHT22;7138;49.246;9.100;2022-10-15T04:29:21;15.30;99.90
14119;DHT22;7138;49.246;9.100;2022-10-15T04:31:48;15.30;99.90
14119;DHT22;7138;49.246;9.100;2022-10-15T04:34:14;15.30;99.90
14119;DHT22;7138;49.246;9.100;2022-10-15T04:36:40;15.30;99.90
14119;DHT22;7138;49.246;9.100;2022-10-15T04:39:06;15.30;99.90
14119;DHT22;7138;49.246;9.100;2022-10-15T04:41:32;15.30;99.90
14119;DHT22;7138;49.246;9.100;2022-10-15T04:43:57;15.30;99.90
14119;DHT22;7138;49.246;9.100;2022-10-15T04:46:24;15.30;99.90
14119;DHT22;7138;49.246;9.100;2022-10-15T04:48:51;15.30;99.90
14119;DHT22;7138;49.246;9.100;2022-10-15T04:51:22;15.30;99.90
14119;DHT22;7138;49.246;9.100;2022-10-15T04:53:50;15.30;99.90
14119;DHT22;7138;49.246;9.100;2022-10-15T04:56:17;15.40;99.90
14119;DHT22;7138;49.246;9.100;2022-10-15T04:58:46;15.30;99.90
14119;DHT22;7138;49.246;9.100;2022-10-15T05:01:14;15.30;99.90
14119;DHT22;7138;49.246;9.100;2022-10-15T05:03:44;15.30;99.90
14119;DHT22;7138;49.246;9.100;2022-10-15T05:06:13;15.30;99.90
14119;DHT22;7138;49.246;9.100;2022-10-15T05:08:41;15.30;99.90
14119;DHT22;7138;49.246;9.100;2022-10-15T05:11:09;15.30;99.90
14119;DHT22;7138;49.246;9.100;2022-10-15T05:13:37;15.30;99.90
14119;DHT22;7138;49.246;9.100;2022-10-15T05:16:11;15.30;99.90
14119;DHT22;7138;49.246;9.100;2022-10-15T05:18:39;15.30;99.90
14119;DHT22;7138;49.246;9.100;2022-10-15T05:21:07;15.30;99.90
14119;DHT22;7138;49.246;9.100;2022-10-15T05:23:35;15.20;99.90
14119;DHT22;7138;49.246;9.100;2022-10-15T05:26:03;15.20;99.90
14119;DHT22;7138;49.246;9.100;2022-10-15T05:28:30;15.20;99.90
14119;DHT22;7138;49.246;9.100;2022-10-15T05:31:02;15.20;99.90
14119;DHT22;7138;49.246;9.100;2022-10-15T05:33:29;15.20;99.90
14119;DHT22;7138;49.246;9.100;2022-10-15T05:35:55;15.20;99.90
14119;DHT22;7138;49.246;9.100;2022-10-15T05:38:21;15.20;99.90
14119;DHT22;7138;49.246;9.100;2022-10-15T05:40:48;15.30;99.90
14119;DHT22;7138;49.246;9.100;2022-10-15T05:43:14;15.20;99.90
14119;DHT22;7138;49.246;9.100;2022-10-15T05:45:40;15.20;99.90
14119;DHT22;7138;49.246;9.100;2022-10-15T05:48:06;15.20;99.90
14119;DHT22;7138;49.246;9.100;2022-10-15T05:50:32;15.20;99.90
14119;DHT22;7138;49.246;9.100;2022-10-15T05:52:58;15.20;99.90
14119;DHT22;7138;49.246;9.100;2022-10-15T05:55:24;15.20;99.90
14119;DHT22;7138;49.246;9.100;2022-10-15T05:57:51;15.20;99.90
14119;DHT22;7138;49.246;9.100;2022-10-15T06:00:17;15.20;99.90
14119;DHT22;7138;49.246;9.100;2022-10-15T06:02:43;15.20;99.90
14119;DHT22;7138;49.246;9.100;2022-10-15T06:05:09;15.20;99.90
14119;DHT22;7138;49.246;9.100;2022-10-15T06:07:34;15.20;99.90
14119;DHT22;7138;49.246;9.100;2022-10-15T06:10:01;15.20;99.90
14119;DHT22;7138;49.246;9.100;2022-10-15T06:12:27;15.10;99.90
14119;DHT22;7138;49.246;9.100;2022-10-15T06:14:54;15.20;99.90
14119;DHT22;7138;49.246;9.100;2022-10-15T06:17:20;15.20;99.90
14119;DHT22;7138;49.246;9.100;2022-10-15T06:19:46;15.10;99.90
14119;DHT22;7138;49.246;9.100;2022-10-15T06:22:11;15.20;99.90
14119;DHT22;7138;49.246;9.100;2022-10-15T06:24:37;15.10;99.90
14119;DHT22;7138;49.246;9.100;2022-10-15T06:27:03;15.20;99.90
14119;DHT22;7138;49.246;9.100;2022-10-15T06:29:29;15.20;99.90
14119;DHT22;7138;49.246;9.100;2022-10-15T06:31:56;15.20;99.90
14119;DHT22;7138;49.246;9.100;2022-10-15T06:34:22;15.20;99.90
14119;DHT22;7138;49.246;9.100;2022-10-15T06:36:48;15.20;99.90
14119;DHT22;7138;49.246;9.100;2022-10-15T06:39:14;15.10;99.90
14119;DHT22;7138;49.246;9.100;2022-10-15T06:41:39;15.10;99.90
14119;DHT22;7138;49.246;9.100;2022-10-15T06:44:05;15.10;99.90
14119;DHT22;7138;49.246;9.100;2022-10-15T06:46:31;15.10;99.90
14119;DHT22;7138;49.246;9.100;2022-10-15T06:48:58;15.10;99.90
14119;DHT22;7138;49.246;9.100;2022-10-15T06:51:24;15.10;99.90
14119;DHT22;7138;49.246;9.100;2022-10-15T06:53:50;15.00;99.90
14119;DHT22;7138;49.246;9.100;2022-10-15T06:56:16;15.00;99.90
14119;DHT22;7138;49.246;9.100;2022-10-15T06:58:42;15.00;99.90
14119;DHT22;7138;49.246;9.100;2022-10-15T07:01:08;15.00;99.90
14119;DHT22;7138;49.246;9.100;2022-10-15T07:03:35;15.00;99.90
14119;DHT22;7138;49.246;9.100;2022-10-15T07:06:06;15.00;99.90
14119;DHT22;7138;49.246;9.100;2022-10-15T07:08:33;15.00;99.90
14119;DHT22;7138;49.246;9.100;2022-10-15T07:11:00;15.10;99.90
14119;DHT22;7138;49.246;9.100;2022-10-15T07:13:28;15.10;99.90
14119;DHT22;7138;49.246;9.100;2022-10-15T07:15:54;15.10;99.90
14119;DHT22;7138;49.246;9.100;2022-10-15T07:18:20;15.10;99.90
14119;DHT22;7138;49.246;9.100;2022-10-15T07:20:46;15.10;99.90
14119;DHT22;7138;49.246;9.100;2022-10-15T07:23:14;15.10;99.90
14119;DHT22;7138;49.246;9.100;2022-10-15T07:25:39;15.10;99.90
14119;DHT22;7138;49.246;9.100;2022-10-15T07:28:05;15.10;99.90
14119;DHT22;7138;49.246;9.100;2022-10-15T07:30:32;15.10;99.90
14119;DHT22;7138;49.246;9.100;2022-10-15T07:32:58;15.10;99.90
14119;DHT22;7138;49.246;9.100;2022-10-15T07:35:24;15.10;99.90
14119;DHT22;7138;49.246;9.100;2022-10-15T07:37:51;15.10;99.90
14119;DHT22;7138;49.246;9.100;2022-10-15T07:40:18;15.10;99.90
14119;DHT22;7138;49.246;9.100;2022-10-15T07:42:45;15.10;99.90
14119;DHT22;7138;49.246;9.100;2022-10-15T07:45:17;15.10;99.90
14119;DHT22;7138;49.246;9.100;2022-10-15T07:47:42;15.10;99.90
14119;DHT22;7138;49.246;9.100;2022-10-15T07:50:08;15.10;99.90
14119;DHT22;7138;49.246;9.100;2022-10-15T07:52:34;15.20;99.90
14119;DHT22;7138;49.246;9.100;2022-10-15T07:55:00;15.20;99.90
14119;DHT22;7138;49.246;9.100;2022-10-15T07:57:27;15.20;99.90
14119;DHT22;7138;49.246;9.100;2022-10-15T07:59:53;15.10;99.90
14119;DHT22;7138;49.246;9.100;2022-10-15T08:02:19;15.20;99.90
14119;DHT22;7138;49.246;9.100;2022-10-15T08:04:46;15.20;99.90
14119;DHT22;7138;49.246;9.100;2022-10-15T08:07:11;15.10;99.90
14119;DHT22;7138;49.246;9.100;2022-10-15T08:09:37;15.10;99.90
14119;DHT22;7138;49.246;9.100;2022-10-15T08:12:04;15.20;99.90
14119;DHT22;7138;49.246;9.100;2022-10-15T08:14:33;15.20;99.90
14119;DHT22;7138;49.246;9.100;2022-10-15T08:17:00;15.20;99.90
14119;DHT22;7138;49.246;9.100;2022-10-15T08:19:26;15.20;99.90
14119;DHT22;7138;49.246;9.100;2022-10-15T08:21:52;15.20;99.90
14119;DHT22;7138;49.246;9.100;2022-10-15T08:24:18;15.30;99.90
14119;DHT22;7138;49.246;9.100;2022-10-15T08:26:44;15.30;99.90
14119;DHT22;7138;49.246;9.100;2022-10-15T08:29:10;15.30;99.90
14119;DHT22;7138;49.246;9.100;2022-10-15T08:31:38;15.30;99.90
14119;DHT22;7138;49.246;9.100;2022-10-15T08:34:04;15.20;99.90
14119;DHT22;7138;49.246;9.100;2022-10-15T08:36:31;15.20;99.90
14119;DHT22;7138;49.246;9.100;2022-10-15T08:38:56;15.20;99.90
14119;DHT22;7138;49.246;9.100;2022-10-15T08:41:26;15.20;99.90
14119;DHT22;7138;49.246;9.100;2022-10-15T08:43:57;15.30;99.90
14119;DHT22;7138;49.246;9.100;2022-10-15T08:46:29;15.20;99.90
14119;DHT22;7138;49.246;9.100;2022-10-15T08:49:02;15.30;99.90
14119;DHT22;7138;49.246;9.100;2022-10-15T08:51:36;15.20;99.90
14119;DHT22;7138;49.246;9.100;2022-10-15T08:54:06;15.30;99.90
14119;DHT22;7138;49.246;9.100;2022-10-15T08:56:42;15.40;99.90
14119;DHT22;7138;49.246;9.100;2022-10-15T08:59:18;15.50;99.90
14119;DHT22;7138;49.246;9.100;2022-10-15T09:01:58;15.50;99.90
14119;DHT22;7138;49.246;9.100;2022-10-15T09:04:31;15.50;99.90
14119;DHT22;7138;49.246;9.100;2022-10-15T09:07:10;15.50;99.90
14119;DHT22;7138;49.246;9.100;2022-10-15T09:09:45;15.50;99.90
14119;DHT22;7138;49.246;9.100;2022-10-15T09:12:22;15.60;99.90
14119;DHT22;7138;49.246;9.100;2022-10-15T09:15:02;15.60;99.90
14119;DHT22;7138;49.246;9.100;2022-10-15T09:17:31;15.70;99.90
14119;DHT22;7138;49.246;9.100;2022-10-15T09:20:04;15.70;99.90
14119;DHT22;7138;49.246;9.100;2022-10-15T09:22:38;15.60;99.90
14119;DHT22;7138;49.246;9.100;2022-10-15T09:25:13;15.60;99.90
14119;DHT22;7138;49.246;9.100;2022-10-15T09:27:41;15.60;99.90
14119;DHT22;7138;49.246;9.100;2022-10-15T09:30:19;15.70;99.90
14119;DHT22;7138;49.246;9.100;2022-10-15T09:32:56;15.80;99.90
14119;DHT22;7138;49.246;9.100;2022-10-15T09:35:32;15.80;99.90
14119;DHT22;7138;49.246;9.100;2022-10-15T09:38:13;15.80;99.90
14119;DHT22;7138;49.246;9.100;2022-10-15T09:41:00;15.80;99.90
14119;DHT22;7138;49.246;9.100;2022-10-15T09:43:42;15.70;99.90
14119;DHT22;7138;49.246;9.100;2022-10-15T09:46:10;15.80;99.90
14119;DHT22;7138;49.246;9.100;2022-10-15T09:48:40;15.80;99.90
14119;DHT22;7138;49.246;9.100;2022-10-15T09:51:20;15.80;99.90
14119;DHT22;7138;49.246;9.100;2022-10-15T09:53:56;15.80;99.90
14119;DHT22;7138;49.246;9.100;2022-10-15T09:56:33;15.70;99.90
14119;DHT22;7138;49.246;9.100;2022-10-15T09:59:03;15.70;99.90
14119;DHT22;7138;49.246;9.100;2022-10-15T10:01:30;15.70;99.90
14119;DHT22;7138;49.246;9.100;2022-10-15T10:04:10;15.80;99.90
14119;DHT22;7138;49.246;9.100;2022-10-15T10:06:49;15.70;99.90
14119;DHT22;7138;49.246;9.100;2022-10-15T10:09:19;15.70;99.90
14119;DHT22;7138;49.246;9.100;2022-10-15T10:11:49;15.60;99.90
14119;DHT22;7138;49.246;9.100;2022-10-15T10:14:24;15.60;99.90
14119;DHT22;7138;49.246;9.100;2022-10-15T10:17:16;15.60;99.90
14119;DHT22;7138;49.246;9.100;2022-10-15T10:19:44;15.60;99.90
14119;DHT22;7138;49.246;9.100;2022-10-15T10:22:15;15.70;99.90
14119;DHT22;7138;49.246;9.100;2022-10-15T10:24:43;15.70;99.90
14119;DHT22;7138;49.246;9.100;2022-10-15T10:27:22;15.70;99.90
14119;DHT22;7138;49.246;9.100;2022-10-15T10:29:53;15.70;99.90
14119;DHT22;7138;49.246;9.100;2022-10-15T10:32:25;15.70;99.90
14119;DHT22;7138;49.246;9.100;2022-10-15T10:34:54;15.80;99.90
14119;DHT22;7138;49.246;9.100;2022-10-15T10:37:22;15.90;99.90
14119;DHT22;7138;49.246;9.100;2022-10-15T10:39:52;15.90;99.90
14119;DHT22;7138;49.246;9.100;2022-10-15T10:42:31;16.00;99.90
14119;DHT22;7138;49.246;9.100;2022-10-15T10:45:15;16.10;99.90
14119;DHT22;7138;49.246;9.100;2022-10-15T10:47:44;16.20;99.90
14119;DHT22;7138;49.246;9.100;2022-10-15T10:50:26;16.30;99.90
14119;DHT22;7138;49.246;9.100;2022-10-15T10:52:57;16.50;99.90
14119;DHT22;7138;49.246;9.100;2022-10-15T10:55:37;16.50;99.90
14119;DHT22;7138;49.246;9.100;2022-10-15T10:58:09;16.60;99.90
14119;DHT22;7138;49.246;9.100;2022-10-15T11:00:44;16.70;99.90
14119;DHT22;7138;49.246;9.100;2022-10-15T11:03:21;16.70;99.90
14119;DHT22;7138;49.246;9.100;2022-10-15T11:06:00;16.80;99.90
14119;DHT22;7138;49.246;9.100;2022-10-15T11:08:46;16.80;99.90
14119;DHT22;7138;49.246;9.100;2022-10-15T11:11:31;16.90;99.90
14119;DHT22;7138;49.246;9.100;2022-10-15T11:14:11;16.90;99.90
14119;DHT22;7138;49.246;9.100;2022-10-15T11:16:51;16.90;99.90
14119;DHT22;7138;49.246;9.100;2022-10-15T11:19:27;17.00;99.90
14119;DHT22;7138;49.246;9.100;2022-10-15T11:22:18;17.10;99.90
14119;DHT22;7138;49.246;9.100;2022-10-15T11:25:00;17.30;99.90
14119;DHT22;7138;49.246;9.100;2022-10-15T11:27:49;17.40;99.90
14119;DHT22;7138;49.246;9.100;2022-10-15T11:30:34;17.40;99.90
14119;DHT22;7138;49.246;9.100;2022-10-15T11:33:19;17.60;99.90
14119;DHT22;7138;49.246;9.100;2022-10-15T11:36:02;17.70;99.90
14119;DHT22;7138;49.246;9.100;2022-10-15T11:38:44;17.60;99.90
14119;DHT22;7138;49.246;9.100;2022-10-15T11:41:36;17.60;99.90
14119;DHT22;7138;49.246;9.100;2022-10-15T11:44:30;17.70;99.90
14119;DHT22;7138;49.246;9.100;2022-10-15T11:47:16;17.90;99.90
14119;DHT22;7138;49.246;9.100;2022-10-15T11:50:01;17.90;99.90
14119;DHT22;7138;49.246;9.100;2022-10-15T11:52:49;17.70;99.90
14119;DHT22;7138;49.246;9.100;2022-10-15T11:55:34;17.60;99.90
14119;DHT22;7138;49.246;9.100;2022-10-15T11:58:09;17.70;99.90
14119;DHT22;7138;49.246;9.100;2022-10-15T12:00:42;17.90;99.90
14119;DHT22;7138;49.246;9.100;2022-10-15T12:03:15;17.90;99.90
14119;DHT22;7138;49.246;9.100;2022-10-15T12:05:47;17.90;99.90
14119;DHT22;7138;49.246;9.100;2022-10-15T12:08:17;17.90;99.90
14119;DHT22;7138;49.246;9.100;2022-10-15T12:10:55;17.90;99.90
14119;DHT22;7138;49.246;9.100;2022-10-15T12:13:41;17.80;99.90
14119;DHT22;7138;49.246;9.100;2022-10-15T12:16:22;17.80;99.90
14119;DHT22;7138;49.246;9.100;2022-10-15T12:18:59;17.80;99.90
14119;DHT22;7138;49.246;9.100;2022-10-15T12:21:37;17.90;99.90
14119;DHT22;7138;49.246;9.100;2022-10-15T12:24:47;18.20;99.90
14119;DHT22;7138;49.246;9.100;2022-10-15T12:27:23;18.30;99.90
14119;DHT22;7138;49.246;9.100;2022-10-15T12:30:18;18.30;99.90
14119;DHT22;7138;49.246;9.100;2022-10-15T12:32:46;18.10;99.90
14119;DHT22;7138;49.246;9.100;2022-10-15T12:35:34;18.00;99.90
14119;DHT22;7138;49.246;9.100;2022-10-15T12:38:20;18.00;99.90
14119;DHT22;7138;49.246;9.100;2022-10-15T12:40:56;17.90;99.90
14119;DHT22;7138;49.246;9.100;2022-10-15T12:43:26;17.90;99.90
14119;DHT22;7138;49.246;9.100;2022-10-15T12:45:55;17.90;99.90
14119;DHT22;7138;49.246;9.100;2022-10-15T12:48:31;17.90;99.90
14119;DHT22;7138;49.246;9.100;2022-10-15T12:54:01;17.80;99.90
14119;DHT22;7138;49.246;9.100;2022-10-15T12:56:37;17.80;99.90
14119;DHT22;7138;49.246;9.100;2022-10-15T12:59:11;17.70;99.90
14119;DHT22;7138;49.246;9.100;2022-10-15T13:01:55;17.70;99.90
14119;DHT22;7138;49.246;9.100;2022-10-15T13:04:21;17.60;99.90
14119;DHT22;7138;49.246;9.100;2022-10-15T13:06:47;17.60;99.90
14119;DHT22;7138;49.246;9.100;2022-10-15T13:09:25;17.50;99.90
14119;DHT22;7138;49.246;9.100;2022-10-15T13:11:55;17.50;99.90
14119;DHT22;7138;49.246;9.100;2022-10-15T13:14:34;17.50;99.90
14119;DHT22;7138;49.246;9.100;2022-10-15T13:17:13;17.50;99.90
14119;DHT22;7138;49.246;9.100;2022-10-15T13:19:46;17.50;99.90
14119;DHT22;7138;49.246;9.100;2022-10-15T13:22:23;17.50;99.90
14119;DHT22;7138;49.246;9.100;2022-10-15T13:24:50;17.50;99.90
14119;DHT22;7138;49.246;9.100;2022-10-15T13:27:22;17.50;99.90
14119;DHT22;7138;49.246;9.100;2022-10-15T13:29:57;17.40;99.90
14119;DHT22;7138;49.246;9.100;2022-10-15T13:32:28;17.40;99.90
14119;DHT22;7138;49.246;9.100;2022-10-15T13:34:56;17.40;99.90
14119;DHT22;7138;49.246;9.100;2022-10-15T13:37:29;17.30;99.90
14119;DHT22;7138;49.246;9.100;2022-10-15T13:39:57;17.30;99.90
14119;DHT22;7138;49.246;9.100;2022-10-15T13:42:25;17.30;99.90
14119;DHT22;7138;49.246;9.100;2022-10-15T13:44:57;17.40;99.90
14119;DHT22;7138;49.246;9.100;2022-10-15T13:47:28;17.30;99.90
14119;DHT22;7138;49.246;9.100;2022-10-15T13:50:27;17.30;99.90
14119;DHT22;7138;49.246;9.100;2022-10-15T13:52:57;17.30;99.90
14119;DHT22;7138;49.246;9.100;2022-10-15T13:55:27;17.20;99.90
14119;DHT22;7138;49.246;9.100;2022-10-15T13:57:59;17.20;99.90
14119;DHT22;7138;49.246;9.100;2022-10-15T14:00:28;17.10;99.90
14119;DHT22;7138;49.246;9.100;2022-10-15T14:03:12;17.10;99.90
14119;DHT22;7138;49.246;9.100;2022-10-15T14:05:41;17.10;99.90
14119;DHT22;7138;49.246;9.100;2022-10-15T14:08:18;17.20;99.90
14119;DHT22;7138;49.246;9.100;2022-10-15T14:10:47;17.20;99.90
14119;DHT22;7138;49.246;9.100;2022-10-15T14:13:14;17.20;99.90
14119;DHT22;7138;49.246;9.100;2022-10-15T14:15:42;17.20;99.90
14119;DHT22;7138;49.246;9.100;2022-10-15T14:18:12;17.30;99.90
14119;DHT22;7138;49.246;9.100;2022-10-15T14:20:45;17.30;99.90
14119;DHT22;7138;49.246;9.100;2022-10-15T14:23:16;17.30;99.90
14119;DHT22;7138;49.246;9.100;2022-10-15T14:25:51;17.30;99.90
14119;DHT22;7138;49.246;9.100;2022-10-15T14:28:20;17.20;99.90
14119;DHT22;7138;49.246;9.100;2022-10-15T14:30:48;17.20;99.90
14119;DHT22;7138;49.246;9.100;2022-10-15T14:33:42;17.10;99.90
14119;DHT22;7138;49.246;9.100;2022-10-15T14:36:13;17.10;99.90
14119;DHT22;7138;49.246;9.100;2022-10-15T14:38:50;17.10;99.90
14119;DHT22;7138;49.246;9.100;2022-10-15T14:41:25;17.00;99.90
14119;DHT22;7138;49.246;9.100;2022-10-15T14:44:00;17.00;99.90
14119;DHT22;7138;49.246;9.100;2022-10-15T14:46:35;17.00;99.90
14119;DHT22;7138;49.246;9.100;2022-10-15T14:49:15;17.00;99.90
14119;DHT22;7138;49.246;9.100;2022-10-15T14:51:50;17.10;99.90
14119;DHT22;7138;49.246;9.100;2022-10-15T14:54:20;17.20;99.90
14119;DHT22;7138;49.246;9.100;2022-10-15T14:56:50;17.10;99.90
14119;DHT22;7138;49.246;9.100;2022-10-15T14:59:18;17.00;99.90
14119;DHT22;7138;49.246;9.100;2022-10-15T15:01:51;16.90;99.90
14119;DHT22;7138;49.246;9.100;2022-10-15T15:04:35;16.80;99.90
14119;DHT22;7138;49.246;9.100;2022-10-15T15:07:14;16.70;99.90
14119;DHT22;7138;49.246;9.100;2022-10-15T15:09:41;16.70;99.90
14119;DHT22;7138;49.246;9.100;2022-10-15T15:12:17;16.70;99.90
14119;DHT22;7138;49.246;9.100;2022-10-15T15:14:45;16.70;99.90
14119;DHT22;7138;49.246;9.100;2022-10-15T15:17:14;16.70;99.90
14119;DHT22;7138;49.246;9.100;2022-10-15T15:19:43;16.70;99.90
14119;DHT22;7138;49.246;9.100;2022-10-15T15:22:11;16.70;99.90
14119;DHT22;7138;49.246;9.100;2022-10-15T15:24:40;16.80;99.90
14119;DHT22;7138;49.246;9.100;2022-10-15T15:27:20;16.70;99.90
14119;DHT22;7138;49.246;9.100;2022-10-15T15:29:49;16.70;99.90
14119;DHT22;7138;49.246;9.100;2022-10-15T15:32:16;16.60;99.90
14119;DHT22;7138;49.246;9.100;2022-10-15T15:34:43;16.60;99.90
14119;DHT22;7138;49.246;9.100;2022-10-15T15:37:14;16.60;99.90
14119;DHT22;7138;49.246;9.100;2022-10-15T15:39:41;16.60;99.90
14119;DHT22;7138;49.246;9.100;2022-10-15T15:42:14;16.60;99.90
14119;DHT22;7138;49.246;9.100;2022-10-15T15:44:41;16.60;99.90
14119;DHT22;7138;49.246;9.100;2022-10-15T15:47:07;16.50;99.90
14119;DHT22;7138;49.246;9.100;2022-10-15T15:49:34;16.50;99.90
14119;DHT22;7138;49.246;9.100;2022-10-15T15:52:02;16.40;99.90
14119;DHT22;7138;49.246;9.100;2022-10-15T15:54:29;16.40;99.90
14119;DHT22;7138;49.246;9.100;2022-10-15T15:56:55;16.30;99.90
14119;DHT22;7138;49.246;9.100;2022-10-15T15:59:21;16.30;99.90
14119;DHT22;7138;49.246;9.100;2022-10-15T16:01:47;16.30;99.90
14119;DHT22;7138;49.246;9.100;2022-10-15T16:04:13;16.20;99.90
14119;DHT22;7138;49.246;9.100;2022-10-15T16:06:39;16.10;99.90
14119;DHT22;7138;49.246;9.100;2022-10-15T16:09:08;16.10;99.90
14119;DHT22;7138;49.246;9.100;2022-10-15T16:11:36;16.00;99.90
14119;DHT22;7138;49.246;9.100;2022-10-15T16:14:02;16.00;99.90
14119;DHT22;7138;49.246;9.100;2022-10-15T16:16:28;15.90;99.90
14119;DHT22;7138;49.246;9.100;2022-10-15T16:18:54;15.90;99.90